Time;durP1;ratioP1;P1;durP2;ratioP2;P2;SDS_P1;SDS_P2;PMS_P1;PMS_P2;Temp;Humidity;BMP_temperature;BMP_pressure;BME280_temperature;BME280_humidity;BME280_pressure;Samples;Min_cycle;Max_cycle;Signal;HPM_P1;HPM_P2
2023/07/11 00:01:21;;;;;;;1999.90;999.90;;;18.50;99.90;;;;;;5157470;27;20468;-67
2023/07/11 00:03:47;;;;;;;1999.90;999.90;;;18.50;99.90;;;;;;5159431;27;20038;-67
2023/07/11 00:06:17;;;;;;;1999.90;999.90;;;18.50;99.90;;;;;;5159960;27;20125;-67
2023/07/11 00:08:43;;;;;;;1999.90;999.90;;;18.50;99.90;;;;;;5159665;27;20049;-66
2023/07/11 00:11:10;;;;;;;1999.90;999.90;;;18.50;99.90;;;;;;5140496;27;20050;-68
2023/07/11 00:13:37;;;;;;;1999.90;999.90;;;18.50;99.90;;;;;;5159715;27;20050;-68
2023/07/11 00:16:06;;;;;;;1999.90;999.90;;;18.50;99.90;;;;;;5141704;27;20111;-67
2023/07/11 00:18:32;;;;;;;1999.90;999.90;;;18.50;99.90;;;;;;5159167;27;20039;-67
2023/07/11 00:20:58;;;;;;;1999.90;999.90;;;18.40;99.90;;;;;;5159059;27;20050;-67
2023/07/11 00:23:25;;;;;;;1999.90;999.90;;;18.40;99.90;;;;;;5159088;27;20043;-67
2023/07/11 00:25:50;;;;;;;1999.90;999.90;;;18.40;99.90;;;;;;5159014;27;20398;-67
2023/07/11 00:28:16;;;;;;;1999.90;999.90;;;18.40;99.90;;;;;;5159501;27;20039;-67
2023/07/11 00:30:42;;;;;;;1999.90;999.90;;;18.40;99.90;;;;;;5158957;27;20066;-66
2023/07/11 00:33:08;;;;;;;1999.90;999.90;;;18.40;99.90;;;;;;5158489;27;20070;-67
2023/07/11 00:35:37;;;;;;;1999.90;999.90;;;18.40;99.90;;;;;;5158746;27;20066;-67
2023/07/11 00:38:03;;;;;;;1999.90;999.90;;;18.40;99.90;;;;;;5140347;27;20050;-67
2023/07/11 00:40:28;;;;;;;1999.90;999.90;;;18.40;99.90;;;;;;5158758;27;20043;-67
2023/07/11 00:42:54;;;;;;;1999.90;999.90;;;18.40;99.90;;;;;;5158716;27;20039;-67
2023/07/11 00:45:49;;;;;;;1999.90;999.90;;;18.40;99.90;;;;;;5158605;27;20412;-67
2023/07/11 00:48:17;;;;;;;1999.90;999.90;;;18.40;99.90;;;;;;5158777;27;20047;-67
2023/07/11 00:50:44;;;;;;;1999.90;999.90;;;18.40;99.90;;;;;;5158585;27;20050;-67
2023/07/11 00:53:12;;;;;;;1999.90;999.90;;;18.40;99.90;;;;;;5158410;27;20131;-66
2023/07/11 00:55:38;;;;;;;1999.90;999.90;;;18.40;99.90;;;;;;5158967;27;20384;-66
2023/07/11 00:58:05;;;;;;;1999.90;999.90;;;18.40;99.90;;;;;;5158442;27;20078;-67
2023/07/11 01:00:31;;;;;;;1999.90;999.90;;;18.40;99.90;;;;;;5158630;27;20039;-67
2023/07/11 01:02:57;;;;;;;1999.90;999.90;;;18.40;99.90;;;;;;5158249;27;20041;-68
2023/07/11 01:05:22;;;;;;;1999.90;999.90;;;18.30;99.90;;;;;;5140085;27;20134;-67
2023/07/11 01:07:48;;;;;;;1999.90;999.90;;;18.30;99.90;;;;;;5158178;27;20046;-67
2023/07/11 01:10:14;;;;;;;1999.90;999.90;;;18.30;99.90;;;;;;5158247;27;20042;-67
2023/07/11 01:12:45;;;;;;;1999.90;999.90;;;18.30;99.90;;;;;;5157028;27;20049;-66
2023/07/11 01:15:11;;;;;;;1999.90;999.90;;;18.20;99.90;;;;;;5158184;27;20046;-66
2023/07/11 01:17:38;;;;;;;1999.90;999.90;;;18.20;99.90;;;;;;5158631;27;20434;-67
2023/07/11 01:20:07;;;;;;;1999.90;999.90;;;18.20;99.90;;;;;;5158067;27;20093;-67
2023/07/11 01:22:36;;;;;;;1999.90;999.90;;;18.20;99.90;;;;;;5158081;27;20041;-67
2023/07/11 01:25:11;;;;;;;1999.90;999.90;;;18.20;99.90;;;;;;5123023;27;20093;-67
2023/07/11 01:27:38;;;;;;;1999.90;999.90;;;18.20;99.90;;;;;;5158688;27;20042;-67
2023/07/11 01:30:07;;;;;;;1999.90;999.90;;;18.20;99.90;;;;;;5157477;27;20391;-68
2023/07/11 01:32:33;;;;;;;1999.90;999.90;;;18.20;99.90;;;;;;5157865;27;20042;-67
2023/07/11 01:34:59;;;;;;;1999.90;999.90;;;18.20;99.90;;;;;;5122323;27;20039;-67
2023/07/11 01:37:25;;;;;;;1999.90;999.90;;;18.20;99.90;;;;;;5158240;27;20577;-68
2023/07/11 01:39:50;;;;;;;1999.90;999.90;;;18.20;99.90;;;;;;5138791;27;20405;-66
2023/07/11 01:42:16;;;;;;;1999.90;999.90;;;18.20;99.90;;;;;;5157877;27;20046;-67
2023/07/11 01:44:42;;;;;;;1999.90;999.90;;;18.10;99.90;;;;;;5158351;27;20509;-66
2023/07/11 01:47:07;;;;;;;1999.90;999.90;;;18.10;99.90;;;;;;5157144;27;20042;-67
2023/07/11 01:49:34;;;;;;;1999.90;999.90;;;18.10;99.90;;;;;;5157123;27;20043;-67
2023/07/11 01:52:26;;;;;;;1999.90;999.90;;;18.10;99.90;;;;;;5157379;27;20054;-67
2023/07/11 01:54:52;;;;;;;1999.90;999.90;;;18.10;99.90;;;;;;5134750;27;20054;-67
2023/07/11 01:57:18;;;;;;;1999.90;999.90;;;18.10;99.90;;;;;;5138652;27;20138;-67
2023/07/11 01:59:44;;;;;;;1999.90;999.90;;;18.10;99.90;;;;;;5157251;27;20039;-67
2023/07/11 02:02:10;;;;;;;1999.90;999.90;;;18.10;99.90;;;;;;5157135;27;20072;-67
2023/07/11 02:04:37;;;;;;;1999.90;999.90;;;18.10;99.90;;;;;;5157856;27;20127;-67
2023/07/11 02:07:04;;;;;;;1999.90;999.90;;;18.10;99.90;;;;;;5157594;27;20046;-66
2023/07/11 02:09:30;;;;;;;1999.90;999.90;;;18.10;99.90;;;;;;5158240;27;20073;-66
2023/07/11 02:11:56;;;;;;;1999.90;999.90;;;18.20;99.90;;;;;;5156970;27;20046;-66
2023/07/11 02:14:22;;;;;;;1999.90;999.90;;;18.20;99.90;;;;;;5156789;27;20047;-67
2023/07/11 02:16:51;;;;;;;1999.90;999.90;;;18.20;99.90;;;;;;5156877;27;20082;-66
2023/07/11 02:19:19;;;;;;;1999.90;999.90;;;18.20;99.90;;;;;;5139356;27;20042;-66
2023/07/11 02:21:45;;;;;;;1999.90;999.90;;;18.20;99.90;;;;;;5157299;27;20408;-67
2023/07/11 02:24:13;;;;;;;1999.90;999.90;;;18.30;99.90;;;;;;5157041;27;20042;-67
2023/07/11 02:26:39;;;;;;;1999.90;999.90;;;18.30;99.90;;;;;;5121097;27;20051;-67
2023/07/11 02:29:06;;;;;;;1999.90;999.90;;;18.40;99.90;;;;;;5156924;27;20069;-67
2023/07/11 02:31:34;;;;;;;1999.90;999.90;;;18.40;99.90;;;;;;5156835;27;20393;-67
2023/07/11 02:34:00;;;;;;;1999.90;999.90;;;18.40;99.90;;;;;;5138005;27;20035;-67
2023/07/11 02:36:27;;;;;;;1999.90;999.90;;;18.40;99.90;;;;;;5156488;27;20086;-66
2023/07/11 02:38:53;;;;;;;1999.90;999.90;;;18.40;99.90;;;;;;5138975;27;20042;-66
2023/07/11 02:41:19;;;;;;;1999.90;999.90;;;18.50;99.90;;;;;;5138216;27;20043;-66
2023/07/11 02:43:48;;;;;;;1999.90;999.90;;;18.50;99.90;;;;;;5156371;27;20126;-66
2023/07/11 02:46:14;;;;;;;1999.90;999.90;;;18.40;99.90;;;;;;5156333;27;20042;-66
2023/07/11 02:48:41;;;;;;;1999.90;999.90;;;18.40;99.90;;;;;;5156531;27;20050;-67
2023/07/11 02:51:07;;;;;;;1999.90;999.90;;;18.40;99.90;;;;;;5156217;27;20047;-67
2023/07/11 02:53:32;;;;;;;1999.90;999.90;;;18.40;99.90;;;;;;5156189;27;20053;-67
2023/07/11 02:55:58;;;;;;;1999.90;999.90;;;18.30;99.90;;;;;;5156702;27;20047;-67
2023/07/11 02:58:24;;;;;;;1999.90;999.90;;;18.30;99.90;;;;;;5156566;27;20107;-67
2023/07/11 03:00:54;;;;;;;1999.90;999.90;;;18.40;99.90;;;;;;5156267;27;20034;-67
2023/07/11 03:03:19;;;;;;;1999.90;999.90;;;18.30;99.90;;;;;;5155834;27;20042;-67
2023/07/11 03:05:47;;;;;;;1999.90;999.90;;;18.30;99.90;;;;;;5137545;27;20095;-66
2023/07/11 03:08:15;;;;;;;1999.90;999.90;;;18.30;99.90;;;;;;5120236;27;20052;-66
2023/07/11 03:10:41;;;;;;;1999.90;999.90;;;18.30;99.90;;;;;;5137902;27;20050;-66
2023/07/11 03:13:08;;;;;;;1999.90;999.90;;;18.30;99.90;;;;;;5119975;27;20121;-67
2023/07/11 03:15:34;;;;;;;1999.90;999.90;;;18.30;99.90;;;;;;5155839;27;20097;-67
2023/07/11 03:18:00;;;;;;;1999.90;999.90;;;18.30;99.90;;;;;;5137293;27;20047;-67
2023/07/11 03:20:26;;;;;;;1999.90;999.90;;;18.30;99.90;;;;;;5137721;27;20051;-67
2023/07/11 03:22:52;;;;;;;1999.90;999.90;;;18.30;99.90;;;;;;5155584;27;20046;-67
2023/07/11 03:25:17;;;;;;;1999.90;999.90;;;18.30;99.90;;;;;;5155896;27;20046;-67
2023/07/11 03:27:43;;;;;;;1999.90;999.90;;;18.30;99.90;;;;;;5155878;27;20049;-66
2023/07/11 03:30:11;;;;;;;1999.90;999.90;;;18.30;99.90;;;;;;5137522;27;20058;-67
2023/07/11 03:32:37;;;;;;;1999.90;999.90;;;18.30;99.90;;;;;;5155306;27;20046;-67
2023/07/11 03:35:03;;;;;;;1999.90;999.90;;;18.30;99.90;;;;;;5136388;27;20055;-67
2023/07/11 03:37:29;;;;;;;1999.90;999.90;;;18.30;99.90;;;;;;5154979;27;20060;-66
2023/07/11 03:39:54;;;;;;;1999.90;999.90;;;18.30;99.90;;;;;;5155465;27;20119;-66
2023/07/11 03:42:20;;;;;;;1999.90;999.90;;;18.30;99.90;;;;;;5156111;27;20466;-66
2023/07/11 03:44:46;;;;;;;1999.90;999.90;;;18.30;99.90;;;;;;5155600;27;20046;-66
2023/07/11 03:47:11;;;;;;;1999.90;999.90;;;18.30;99.90;;;;;;5136807;27;20042;-66
2023/07/11 03:49:37;;;;;;;1999.90;999.90;;;18.20;99.90;;;;;;5119902;27;20043;-67
2023/07/11 03:52:03;;;;;;;1999.90;999.90;;;18.20;99.90;;;;;;5155194;27;20039;-67
2023/07/11 03:54:29;;;;;;;1999.90;999.90;;;18.20;99.90;;;;;;5155649;27;20134;-67
2023/07/11 03:56:55;;;;;;;1999.90;999.90;;;18.20;99.90;;;;;;5102967;27;20106;-66
2023/07/11 03:59:20;;;;;;;1999.90;999.90;;;18.20;99.90;;;;;;5155245;27;20055;-66
2023/07/11 04:01:47;;;;;;;1999.90;999.90;;;18.20;99.90;;;;;;5136866;27;20055;-67
2023/07/11 04:04:13;;;;;;;1999.90;999.90;;;18.20;99.90;;;;;;5155442;27;20053;-67
2023/07/11 04:06:39;;;;;;;1999.90;999.90;;;18.20;99.90;;;;;;5155881;27;20126;-67
2023/07/11 04:09:05;;;;;;;1999.90;999.90;;;18.20;99.90;;;;;;5137666;27;20050;-67
2023/07/11 04:11:31;;;;;;;1999.90;999.90;;;18.20;99.90;;;;;;5155481;27;20435;-67
2023/07/11 04:13:57;;;;;;;1999.90;999.90;;;18.20;99.90;;;;;;5119487;27;20047;-67
2023/07/11 04:16:22;;;;;;;1999.90;999.90;;;18.20;99.90;;;;;;5136266;27;20083;-67
2023/07/11 04:18:49;;;;;;;1999.90;999.90;;;18.20;99.90;;;;;;5154968;27;20054;-67
2023/07/11 04:21:15;;;;;;;1999.90;999.90;;;18.20;99.90;;;;;;5154957;27;20050;-66
2023/07/11 04:23:40;;;;;;;1999.90;999.90;;;18.20;99.90;;;;;;5154952;27;20045;-66
2023/07/11 04:26:06;;;;;;;1999.90;999.90;;;18.20;99.90;;;;;;5136654;27;20143;-66
2023/07/11 04:28:32;;;;;;;1999.90;999.90;;;18.20;99.90;;;;;;5154889;27;20064;-66
2023/07/11 04:30:57;;;;;;;1999.90;999.90;;;18.20;99.90;;;;;;5155775;27;20039;-66
2023/07/11 04:33:23;;;;;;;1999.90;999.90;;;18.20;99.90;;;;;;5137211;27;20043;-67
2023/07/11 04:35:49;;;;;;;1999.90;999.90;;;18.20;99.90;;;;;;5154969;27;20059;-67
2023/07/11 04:38:14;;;;;;;1999.90;999.90;;;18.20;99.90;;;;;;5154885;27;20086;-67
2023/07/11 04:40:40;;;;;;;1999.90;999.90;;;18.20;99.90;;;;;;5154936;27;20397;-67
2023/07/11 04:43:06;;;;;;;1999.90;999.90;;;18.30;99.90;;;;;;5136570;27;20457;-66
2023/07/11 04:45:33;;;;;;;1999.90;999.90;;;18.30;99.90;;;;;;5154789;27;20066;-66
2023/07/11 04:48:00;;;;;;;1999.90;999.90;;;18.30;99.90;;;;;;5157685;27;20520;-66
2023/07/11 04:50:26;;;;;;;1999.90;999.90;;;18.30;99.90;;;;;;5141480;27;20482;-65
2023/07/11 04:52:52;;;;;;;1999.90;999.90;;;18.30;99.90;;;;;;5140107;27;20046;-66
2023/07/11 04:55:18;;;;;;;1999.90;999.90;;;18.30;99.90;;;;;;5158521;27;20047;-65
2023/07/11 04:57:43;;;;;;;1999.90;999.90;;;18.30;99.90;;;;;;5158452;27;20042;-65
2023/07/11 05:00:10;;;;;;;1999.90;999.90;;;18.40;99.90;;;;;;5139548;27;20102;-66
2023/07/11 05:02:36;;;;;;;1999.90;999.90;;;18.40;99.90;;;;;;5158288;27;20058;-66
2023/07/11 05:05:02;;;;;;;1999.90;999.90;;;18.40;99.90;;;;;;5158325;27;20039;-65
2023/07/11 05:07:28;;;;;;;1999.90;999.90;;;18.40;99.90;;;;;;5140051;27;20043;-66
2023/07/11 05:09:53;;;;;;;1999.90;999.90;;;18.40;99.90;;;;;;5158579;27;20039;-65
2023/07/11 05:12:19;;;;;;;1999.90;999.90;;;18.40;99.90;;;;;;5158111;27;20043;-65
2023/07/11 05:14:45;;;;;;;1999.90;999.90;;;18.40;99.90;;;;;;5158199;27;20038;-65
2023/07/11 05:17:11;;;;;;;1999.90;999.90;;;18.40;99.90;;;;;;5139646;27;20042;-66
2023/07/11 05:19:36;;;;;;;1999.90;999.90;;;18.50;99.90;;;;;;5158046;27;20047;-65
2023/07/11 05:22:02;;;;;;;1999.90;999.90;;;18.50;99.90;;;;;;5140500;27;20367;-65
2023/07/11 05:24:30;;;;;;;1999.90;999.90;;;18.50;99.90;;;;;;5157973;27;20129;-65
2023/07/11 05:26:56;;;;;;;1999.90;999.90;;;18.60;99.90;;;;;;5139682;27;20072;-65
2023/07/11 05:29:22;;;;;;;1999.90;999.90;;;18.60;99.90;;;;;;5157868;27;20091;-66
2023/07/11 05:31:48;;;;;;;1999.90;999.90;;;18.60;99.90;;;;;;5139475;27;20043;-65
2023/07/11 05:34:14;;;;;;;1999.90;999.90;;;18.70;99.90;;;;;;5157685;27;20042;-66
2023/07/11 05:36:40;;;;;;;1999.90;999.90;;;18.70;99.90;;;;;;5157910;27;20055;-65
2023/07/11 05:39:13;;;;;;;1999.90;999.90;;;18.80;99.90;;;;;;5157655;27;20490;-65
2023/07/11 05:41:44;;;;;;;1999.90;999.90;;;18.80;99.90;;;;;;5157630;27;20482;-65
2023/07/11 05:44:11;;;;;;;1999.90;999.90;;;18.90;99.90;;;;;;5139568;27;20046;-65
2023/07/11 05:46:37;;;;;;;1999.90;999.90;;;19.00;99.90;;;;;;5139626;27;20082;-65
2023/07/11 05:49:04;;;;;;;1999.90;999.90;;;19.00;99.90;;;;;;5139003;27;20530;-66
2023/07/11 05:51:30;;;;;;;1999.90;999.90;;;19.10;99.90;;;;;;5138961;27;20047;-66
2023/07/11 05:53:57;;;;;;;1999.90;999.90;;;19.20;99.90;;;;;;5157463;27;20043;-66
2023/07/11 05:56:23;;;;;;;1999.90;999.90;;;19.30;99.90;;;;;;5157516;27;20097;-65
2023/07/11 05:58:51;;;;;;;1999.90;999.90;;;19.40;99.90;;;;;;5139892;27;20075;-65
2023/07/11 06:01:24;;;;;;;1999.90;999.90;;;19.50;99.90;;;;;;5138726;27;20049;-65
2023/07/11 06:04:01;;;;;;;1999.90;999.90;;;19.50;99.90;;;;;;5157945;27;20374;-65
2023/07/11 06:06:26;;;;;;;1999.90;999.90;;;19.60;99.90;;;;;;5138445;27;20558;-65
2023/07/11 06:08:52;;;;;;;1999.90;999.90;;;19.70;99.90;;;;;;5157060;27;20079;-65
2023/07/11 06:11:18;;;;;;;1999.90;999.90;;;19.80;99.90;;;;;;5157294;27;20079;-65
2023/07/11 06:13:43;;;;;;;1999.90;999.90;;;19.90;99.90;;;;;;5138170;27;20034;-65
2023/07/11 06:16:15;;;;;;;1999.90;999.90;;;19.90;99.90;;;;;;5156942;27;20458;-65
2023/07/11 06:18:41;;;;;;;1999.90;999.90;;;19.90;99.90;;;;;;5138438;27;20041;-65
2023/07/11 06:21:10;;;;;;;1999.90;999.90;;;20.00;99.90;;;;;;5156971;27;20137;-65
2023/07/11 06:23:36;;;;;;;1999.90;999.90;;;20.00;99.90;;;;;;5156811;27;20081;-65
2023/07/11 06:26:02;;;;;;;1999.90;999.90;;;20.00;99.90;;;;;;5156842;27;20046;-65
2023/07/11 06:28:28;;;;;;;1999.90;999.90;;;20.10;99.90;;;;;;5157223;27;20054;-65
2023/07/11 06:31:00;;;;;;;1999.90;999.90;;;20.10;99.90;;;;;;5156714;27;20068;-65
2023/07/11 06:33:27;;;;;;;1999.90;999.90;;;20.20;99.90;;;;;;5156460;27;20046;-65
2023/07/11 06:35:54;;;;;;;1999.90;999.90;;;20.20;99.90;;;;;;5138015;27;20047;-65
2023/07/11 06:38:20;;;;;;;1999.90;999.90;;;20.20;99.90;;;;;;5156537;27;20047;-66
2023/07/11 06:40:50;;;;;;;1999.90;999.90;;;20.30;99.90;;;;;;5156496;27;20050;-65
2023/07/11 06:43:17;;;;;;;1999.90;999.90;;;20.40;99.90;;;;;;5138931;27;20042;-65
2023/07/11 06:45:46;;;;;;;1999.90;999.90;;;20.40;99.90;;;;;;5156080;27;20448;-65
2023/07/11 06:48:12;;;;;;;1999.90;999.90;;;20.50;99.90;;;;;;5156210;27;20127;-66
2023/07/11 06:50:38;;;;;;;1999.90;999.90;;;20.50;99.90;;;;;;5156321;27;20050;-66
2023/07/11 06:53:04;;;;;;;1999.90;999.90;;;20.60;99.90;;;;;;5120630;27;20043;-65
2023/07/11 06:55:30;;;;;;;1999.90;999.90;;;20.60;99.90;;;;;;5156130;27;20130;-65
2023/07/11 06:57:55;;;;;;;1999.90;999.90;;;20.70;99.90;;;;;;5156169;27;20046;-65
2023/07/11 07:00:21;;;;;;;1999.90;999.90;;;20.70;99.90;;;;;;5137668;27;20051;-65
2023/07/11 07:02:47;;;;;;;1999.90;999.90;;;20.70;99.90;;;;;;5155979;27;20091;-65
2023/07/11 07:05:13;;;;;;;1999.90;999.90;;;20.80;99.90;;;;;;5139012;27;20047;-65
2023/07/11 07:07:38;;;;;;;1999.90;999.90;;;20.80;99.90;;;;;;5157016;27;20390;-65
2023/07/11 07:10:04;;;;;;;1999.90;999.90;;;20.90;99.90;;;;;;5136745;27;20089;-65
2023/07/11 07:12:30;;;;;;;1999.90;999.90;;;20.90;99.90;;;;;;5155714;27;20046;-65
2023/07/11 07:14:56;;;;;;;1999.90;999.90;;;21.00;99.90;;;;;;5155766;27;20390;-65
2023/07/11 07:17:21;;;;;;;1999.90;999.90;;;21.10;99.90;;;;;;5137278;27;20039;-65
2023/07/11 07:19:47;;;;;;;1999.90;999.90;;;21.10;99.90;;;;;;5155878;27;20058;-65
2023/07/11 07:22:13;;;;;;;1999.90;999.90;;;21.20;99.90;;;;;;5137877;27;20493;-65
2023/07/11 07:24:39;;;;;;;1999.90;999.90;;;21.30;99.90;;;;;;5156651;27;20125;-65
2023/07/11 07:27:05;;;;;;;1999.90;999.90;;;21.30;99.90;;;;;;5138092;27;20366;-65
2023/07/11 07:29:30;;;;;;;1999.90;999.90;;;21.40;99.90;;;;;;5137222;27;20069;-66
2023/07/11 07:31:56;;;;;;;1999.90;999.90;;;21.40;99.90;;;;;;5136792;27;20034;-66
2023/07/11 07:34:22;;;;;;;1999.90;999.90;;;21.50;99.90;;;;;;5155535;27;20454;-66
2023/07/11 07:36:47;;;;;;;1999.90;999.90;;;21.50;99.90;;;;;;5156313;27;20056;-65
2023/07/11 07:39:13;;;;;;;1999.90;999.90;;;21.60;99.90;;;;;;5156080;27;20395;-65
2023/07/11 07:41:39;;;;;;;1999.90;999.90;;;21.70;99.90;;;;;;5155223;27;20046;-65
2023/07/11 07:44:04;;;;;;;1999.90;999.90;;;21.70;99.90;;;;;;5155572;27;20053;-66
2023/07/11 07:46:30;;;;;;;1999.90;999.90;;;21.80;99.90;;;;;;5155454;27;20047;-65
2023/07/11 07:48:56;;;;;;;1999.90;999.90;;;21.90;99.90;;;;;;5155471;27;20047;-65
2023/07/11 07:51:22;;;;;;;1999.90;999.90;;;22.00;99.90;;;;;;5155426;27;20039;-65
2023/07/11 07:53:48;;;;;;;1999.90;999.90;;;22.10;99.90;;;;;;5155388;27;20094;-65
2023/07/11 07:56:20;;;;;;;1999.90;999.90;;;22.10;99.90;;;;;;5137482;27;20095;-65
2023/07/11 07:58:46;;;;;;;;;;;22.20;99.90;;;;;;5156680;27;20051;-65
2023/07/11 08:01:14;;;;;;;1999.90;999.90;;;22.30;99.90;;;;;;5155299;27;19919;-66
2023/07/11 08:03:40;;;;;;;1999.90;999.90;;;22.30;99.90;;;;;;5155264;27;20080;-65
2023/07/11 08:06:07;;;;;;;1999.90;999.90;;;22.40;99.90;;;;;;5137123;27;20050;-65
2023/07/11 08:08:33;;;;;;;1999.90;999.90;;;22.40;99.90;;;;;;5136561;27;20049;-65
2023/07/11 08:11:04;;;;;;;1999.90;999.90;;;22.50;99.90;;;;;;5136938;27;20043;-65
2023/07/11 08:13:30;;;;;;;1999.90;999.90;;;22.50;99.90;;;;;;5155218;27;20145;-65
2023/07/11 08:15:56;;;;;;;1999.90;999.90;;;22.50;99.90;;;;;;5156918;27;20038;-65
2023/07/11 08:18:22;;;;;;;1999.90;999.90;;;22.60;99.90;;;;;;5155703;27;20099;-65
2023/07/11 08:20:48;;;;;;;1999.90;999.90;;;22.60;99.90;;;;;;5155677;27;20047;-66
2023/07/11 08:23:14;;;;;;;1999.90;999.90;;;22.70;99.90;;;;;;5140983;27;20050;-65
2023/07/11 08:25:41;;;;;;;1999.90;999.90;;;22.70;99.90;;;;;;5158911;27;20367;-65
2023/07/11 08:28:07;;;;;;;1999.90;999.90;;;22.80;99.90;;;;;;5140744;27;20082;-65
2023/07/11 08:30:36;;;;;;;1999.90;999.90;;;22.90;99.90;;;;;;5159205;27;20103;-65
2023/07/11 08:33:02;;;;;;;1999.90;999.90;;;22.90;99.90;;;;;;5158924;27;20043;-65
2023/07/11 08:35:28;;;;;;;1999.90;999.90;;;22.90;99.90;;;;;;5158861;27;20134;-65
2023/07/11 08:37:55;;;;;;;1999.90;999.90;;;23.00;99.90;;;;;;5159061;27;20539;-65
2023/07/11 08:40:23;;;;;;;1999.90;999.90;;;23.00;99.90;;;;;;5158997;27;20095;-65
2023/07/11 08:42:49;;;;;;;1999.90;999.90;;;23.10;99.90;;;;;;5158941;27;20039;-65
2023/07/11 08:45:29;;;;;;;1999.90;999.90;;;23.10;99.90;;;;;;5140281;27;20225;-65
2023/07/11 08:48:13;;;;;;;1999.90;999.90;;;23.20;99.90;;;;;;5159198;27;20051;-65
2023/07/11 08:50:53;;;;;;;1999.90;999.90;;;23.30;99.90;;;;;;5159163;27;20482;-65
2023/07/11 08:53:26;;;;;;;1999.90;999.90;;;23.40;99.90;;;;;;5158430;27;20042;-65
2023/07/11 08:55:56;;;;;;;1999.90;999.90;;;23.40;99.90;;;;;;5122733;27;20043;-64
2023/07/11 08:58:27;;;;;;;1999.90;999.90;;;23.50;99.90;;;;;;5140597;27;20118;-65
2023/07/11 09:00:53;;;;;;;1999.90;999.90;;;23.50;99.90;;;;;;5158447;27;20062;-65
2023/07/11 09:03:39;;;;;;;1999.90;999.90;;;23.60;99.90;;;;;;5158371;27;20046;-65
2023/07/11 09:06:07;;;;;;;1999.90;999.90;;;23.50;99.90;;;;;;5158450;27;20122;-65
2023/07/11 09:08:38;;;;;;;1999.90;999.90;;;23.60;99.90;;;;;;5158369;27;20046;-65
2023/07/11 09:11:23;;;;;;;1999.90;999.90;;;23.60;99.90;;;;;;5139956;27;20497;-65
2023/07/11 09:14:07;;;;;;;1999.90;999.90;;;23.70;99.90;;;;;;5158561;27;20413;-65
2023/07/11 09:16:37;;;;;;;1999.90;999.90;;;23.70;99.90;;;;;;5158969;27;20401;-65
2023/07/11 09:19:39;;;;;;;1999.90;999.90;;;23.80;99.90;;;;;;5158943;27;20049;-65
2023/07/11 09:22:42;;;;;;;1999.90;999.90;;;23.90;99.90;;;;;;5160530;27;20109;-65
2023/07/11 09:25:19;;;;;;;1999.90;999.90;;;23.90;99.90;;;;;;5158468;27;20049;-64
2023/07/11 09:27:52;;;;;;;1999.90;999.90;;;24.10;99.90;;;;;;5158704;27;20043;-65
2023/07/11 09:30:21;;;;;;;1999.90;999.90;;;24.20;99.90;;;;;;5158039;27;20090;-66
2023/07/11 09:32:47;;;;;;;1999.90;999.90;;;24.30;99.90;;;;;;5157091;27;20111;-64
2023/07/11 09:35:34;;;;;;;1999.90;999.90;;;24.40;99.90;;;;;;5157634;27;20091;-64
2023/07/11 09:38:16;;;;;;;1999.90;999.90;;;24.50;99.90;;;;;;5157343;27;20050;-65
2023/07/11 09:40:53;;;;;;;1999.90;999.90;;;24.60;99.90;;;;;;5157522;27;20050;-65
2023/07/11 09:43:18;;;;;;;1999.90;999.90;;;24.70;99.90;;;;;;5139981;27;20046;-64
2023/07/11 09:45:47;;;;;;;1999.90;999.90;;;24.80;99.90;;;;;;5138962;27;20042;-65
2023/07/11 09:48:30;;;;;;;1999.90;999.90;;;24.80;99.90;;;;;;5157625;27;20078;-66
2023/07/11 09:51:07;;;;;;;1999.90;999.90;;;24.90;99.90;;;;;;5158342;27;20053;-65
2023/07/11 09:53:33;;;;;;;1999.90;999.90;;;25.00;99.90;;;;;;5139121;27;20046;-65
2023/07/11 09:56:01;;;;;;;1999.90;999.90;;;25.00;99.90;;;;;;5157513;27;20053;-64
2023/07/11 09:58:31;;;;;;;1999.90;999.90;;;25.00;99.90;;;;;;5157473;27;20046;-65
2023/07/11 10:01:00;;;;;;;1999.90;999.90;;;25.00;99.90;;;;;;5157386;27;20046;-65
2023/07/11 10:03:28;;;;;;;1999.90;999.90;;;25.10;99.90;;;;;;5139005;27;20521;-64
2023/07/11 10:05:54;;;;;;;1999.90;999.90;;;25.20;99.90;;;;;;5157313;27;20103;-65
2023/07/11 10:08:28;;;;;;;1999.90;999.90;;;25.10;99.90;;;;;;5157748;27;20054;-65
2023/07/11 10:11:01;;;;;;;1999.90;999.90;;;25.20;99.90;;;;;;5157236;27;20129;-64
2023/07/11 10:13:27;;;;;;;1999.90;999.90;;;25.20;99.90;;;;;;5157176;27;20386;-64
2023/07/11 10:15:55;;;;;;;1999.90;999.90;;;25.20;99.90;;;;;;5157077;27;20543;-64
2023/07/11 10:18:30;;;;;;;1999.90;999.90;;;25.20;99.90;;;;;;5156987;27;20038;-65
2023/07/11 10:21:00;;;;;;;1999.90;999.90;;;25.20;99.90;;;;;;5157049;27;20125;-65
2023/07/11 10:23:27;;;;;;;1999.90;999.90;;;25.30;99.90;;;;;;5120991;27;20050;-65
2023/07/11 10:26:04;;;;;;;1999.90;999.90;;;25.30;99.90;;;;;;5157606;27;20047;-64
2023/07/11 10:28:39;;;;;;;1999.90;999.90;;;25.30;99.90;;;;;;5138195;27;20074;-65
2023/07/11 10:31:09;;;;;;;1999.90;999.90;;;25.40;99.90;;;;;;5157048;27;20042;-65
2023/07/11 10:33:44;;;;;;;1999.90;999.90;;;25.50;99.90;;;;;;5156804;27;20095;-65
2023/07/11 10:36:33;;;;;;;1999.90;999.90;;;25.50;99.90;;;;;;5120773;27;20062;-64
2023/07/11 10:39:03;;;;;;;1999.90;999.90;;;25.50;99.90;;;;;;5156206;27;20528;-64
2023/07/11 10:41:33;;;;;;;1999.90;999.90;;;25.60;99.90;;;;;;5156500;27;20043;-65
2023/07/11 10:44:02;;;;;;;1999.90;999.90;;;25.60;99.90;;;;;;5156854;27;20062;-65
2023/07/11 10:46:35;;;;;;;1999.90;999.90;;;25.70;99.90;;;;;;5156066;27;20486;-65
2023/07/11 10:49:06;;;;;;;1999.90;999.90;;;25.70;99.90;;;;;;5156690;27;20398;-64
2023/07/11 10:52:13;;;;;;;1999.90;999.90;;;25.80;99.90;;;;;;5156852;27;20086;-64
2023/07/11 10:55:09;;;;;;;1999.90;999.90;;;25.80;99.90;;;;;;5156190;27;20046;-64
2023/07/11 10:57:38;;;;;;;1999.90;999.90;;;25.90;99.90;;;;;;5151916;27;20090;-65
2023/07/11 11:00:08;;;;;;;1999.90;999.90;;;26.00;99.90;;;;;;5156073;27;20046;-65
2023/07/11 11:03:19;;;;;;;1999.90;999.90;;;26.10;99.90;;;;;;5156211;27;20546;-65
2023/07/11 11:05:57;;;;;;;1999.90;999.90;;;26.20;99.90;;;;;;5123985;27;20051;-65
2023/07/11 11:08:46;;;;;;;1999.90;999.90;;;26.20;99.90;;;;;;5156083;27;20046;-64
2023/07/11 11:11:20;;;;;;;1999.90;999.90;;;26.30;99.90;;;;;;5116872;27;20093;-65
2023/07/11 11:14:02;;;;;;;1999.90;999.90;;;26.40;99.90;;;;;;5155880;27;20049;-64
2023/07/11 11:16:37;;;;;;;1999.90;999.90;;;26.40;99.80;;;;;;5156515;27;20455;-67
2023/07/11 11:19:03;;;;;;;1999.90;999.90;;;26.50;97.90;;;;;;5138177;27;20379;-65
2023/07/11 11:21:55;;;;;;;1999.90;999.90;;;26.60;99.90;;;;;;5136545;27;20043;-66
2023/07/11 11:24:47;;;;;;;1999.90;999.90;;;26.60;99.90;;;;;;5141446;27;20055;-65
2023/07/11 11:27:37;;;;;;;1999.90;999.90;;;26.70;99.50;;;;;;5155136;27;20058;-66
2023/07/11 11:30:33;;;;;;;1999.90;999.90;;;26.80;99.80;;;;;;5155590;27;20043;-66
2023/07/11 11:33:16;;;;;;;1999.90;999.90;;;26.80;99.60;;;;;;5137508;27;20047;-66
2023/07/11 11:36:18;;;;;;;1999.90;999.90;;;26.90;99.50;;;;;;5137168;27;20043;-66
2023/07/11 11:39:01;;;;;;;1999.90;999.90;;;27.00;99.40;;;;;;5142152;27;20104;-66
2023/07/11 11:41:58;;;;;;;1999.90;999.90;;;26.90;99.60;;;;;;5157186;27;20043;-65
2023/07/11 11:44:47;;;;;;;1999.90;999.90;;;27.00;99.30;;;;;;5144423;27;20047;-65
2023/07/11 11:47:14;;;;;;;1999.90;999.90;;;27.00;97.80;;;;;;5155695;27;20053;-65
2023/07/11 11:49:40;;;;;;;1999.90;999.90;;;27.00;99.10;;;;;;5137595;27;20111;-65
2023/07/11 11:52:07;;;;;;;1999.90;999.90;;;27.00;98.80;;;;;;5155355;27;20105;-65
2023/07/11 11:54:44;;;;;;;1999.90;999.90;;;27.00;99.10;;;;;;5155208;27;20043;-65
2023/07/11 11:57:24;;;;;;;1999.90;999.90;;;27.00;98.30;;;;;;5136847;27;20505;-66
2023/07/11 11:59:50;;;;;;;1999.90;999.90;;;27.10;99.20;;;;;;5155585;27;20042;-65
2023/07/11 12:02:28;;;;;;;1999.90;999.90;;;27.10;98.80;;;;;;5136882;27;20066;-65
2023/07/11 12:05:02;;;;;;;1999.90;999.90;;;27.10;98.70;;;;;;5136968;27;20047;-66
2023/07/11 12:07:39;;;;;;;1999.90;999.90;;;27.20;98.90;;;;;;5155549;27;20085;-66
2023/07/11 12:10:13;;;;;;;1999.90;999.90;;;27.20;98.50;;;;;;5137660;27;20137;-65